Time;durP1;ratioP1;P1;durP2;ratioP2;P2;SDS_P1;SDS_P2;PMS_P1;PMS_P2;Temp;Humidity;BMP_temperature;BMP_pressure;BME280_temperature;BME280_humidity;BME280_pressure;Samples;Min_cycle;Max_cycle;Signal;HPM_P1;HPM_P2
2021/12/07 00:02:03;;;;;;;2.75;2.30;;;3.10;99.90;;;;;;5068896;28;20278;-61
2021/12/07 00:04:32;;;;;;;2.03;1.90;;;3.10;99.90;;;;;;5069291;28;20238;-61
2021/12/07 00:07:01;;;;;;;2.80;2.60;;;3.20;99.90;;;;;;5069694;28;20309;-60
2021/12/07 00:09:30;;;;;;;3.80;3.10;;;3.30;99.90;;;;;;5060368;28;20208;-61
2021/12/07 00:12:03;;;;;;;3.38;3.08;;;3.40;99.90;;;;;;5065368;28;20245;-62
2021/12/07 00:14:38;;;;;;;3.90;3.55;;;3.40;99.90;;;;;;5054804;28;20677;-62
2021/12/07 00:17:07;;;;;;;5.88;4.30;;;3.50;99.90;;;;;;5060761;28;20595;-61
2021/12/07 00:19:36;;;;;;;5.00;4.03;;;3.60;99.90;;;;;;5071781;28;20211;-60
2021/12/07 00:22:06;;;;;;;6.68;4.68;;;3.60;99.90;;;;;;5063258;28;20194;-63
2021/12/07 00:24:39;;;;;;;7.28;5.35;;;3.70;99.90;;;;;;5055264;28;20241;-61
2021/12/07 00:27:07;;;;;;;5.68;5.00;;;3.80;99.90;;;;;;5068427;28;20243;-61
2021/12/07 00:29:39;;;;;;;7.00;5.47;;;3.80;99.90;;;;;;5073267;28;20212;-61
2021/12/07 00:32:20;;;;;;;7.38;6.55;;;3.90;99.90;;;;;;5070114;28;20180;-62
2021/12/07 00:35:12;;;;;;;6.93;5.22;;;3.90;99.90;;;;;;5052859;28;20210;-62
2021/12/07 00:37:44;;;;;;;10.27;5.65;;;3.90;99.90;;;;;;5067203;28;20224;-60
2021/12/07 00:40:15;;;;;;;7.10;6.40;;;4.00;99.90;;;;;;5051539;28;20690;-60
2021/12/07 00:42:43;;;;;;;8.15;7.32;;;4.00;99.90;;;;;;5070620;28;20237;-63
2021/12/07 00:45:16;;;;;;;10.25;6.95;;;4.00;99.90;;;;;;5060325;28;20325;-61
2021/12/07 00:47:45;;;;;;;10.90;8.10;;;4.10;99.90;;;;;;5068198;28;20223;-61
2021/12/07 00:50:13;;;;;;;9.55;8.48;;;4.10;99.90;;;;;;5069401;28;20223;-61
2021/12/07 00:52:41;;;;;;;11.93;9.02;;;4.20;99.90;;;;;;5069706;28;20220;-62
2021/12/07 00:55:13;;;;;;;15.73;9.48;;;4.20;99.90;;;;;;5055688;28;20220;-62
2021/12/07 00:57:42;;;;;;;16.25;10.88;;;4.30;99.90;;;;;;5052367;28;20230;-61
2021/12/07 01:00:15;;;;;;;16.15;9.80;;;4.30;99.90;;;;;;5053664;28;20209;-61
2021/12/07 01:02:44;;;;;;;14.27;8.93;;;4.30;99.90;;;;;;5065939;28;20216;-62
2021/12/07 01:05:18;;;;;;;13.23;9.45;;;4.30;99.90;;;;;;5072210;28;20180;-62
2021/12/07 01:08:10;;;;;;;10.82;7.88;;;4.30;99.90;;;;;;5054052;28;20281;-61
2021/12/07 01:27:17;;;;;;;7.90;4.68;;;4.40;99.90;;;;;;5052784;28;20196;-61
2021/12/07 01:29:50;;;;;;;7.50;4.15;;;4.30;99.90;;;;;;5066064;28;20219;-61
2021/12/07 01:32:40;;;;;;;4.78;2.75;;;4.30;99.90;;;;;;5057911;28;20219;-62
2021/12/07 01:35:36;;;;;;;7.15;3.30;;;4.20;99.90;;;;;;5070243;28;20220;-62
2021/12/07 01:38:23;;;;;;;3.47;3.13;;;4.20;99.90;;;;;;5065528;28;20228;-61
2021/12/07 01:41:18;;;;;;;6.53;3.13;;;4.20;99.90;;;;;;5069264;28;20242;-60
2021/12/07 02:00:13;;;;;;;10.25;6.22;;;4.10;99.90;;;;;;5049766;28;20212;-60
2021/12/07 02:02:43;;;;;;;12.60;7.15;;;4.10;99.90;;;;;;5064052;28;20562;-61
2021/12/07 02:05:13;;;;;;;15.23;7.80;;;4.10;99.90;;;;;;5064668;28;20211;-62
2021/12/07 02:07:41;;;;;;;19.55;8.70;;;4.20;99.90;;;;;;5067049;28;20223;-61
2021/12/07 02:10:15;;;;;;;14.30;8.18;;;4.20;99.90;;;;;;5066929;28;20720;-61
2021/12/07 02:12:48;;;;;;;18.00;10.13;;;4.30;99.90;;;;;;5058535;28;20238;-61
2021/12/07 02:15:19;;;;;;;14.45;8.23;;;4.40;99.90;;;;;;5051172;28;20209;-61
2021/12/07 02:17:48;;;;;;;16.38;9.55;;;4.40;99.90;;;;;;5062885;28;20318;-61
2021/12/07 02:20:19;;;;;;;16.13;7.40;;;4.40;99.90;;;;;;5069442;28;20616;-61
2021/12/07 02:22:49;;;;;;;14.43;8.77;;;4.40;99.90;;;;;;5068893;28;20235;-63
2021/12/07 02:25:20;;;;;;;17.00;8.07;;;4.50;99.90;;;;;;5067542;28;20184;-63
2021/12/07 02:27:49;;;;;;;28.58;8.23;;;4.60;99.90;;;;;;5060859;28;20223;-61
2021/12/07 02:30:21;;;;;;;14.95;8.02;;;4.60;99.90;;;;;;5056290;28;20207;-60
2021/12/07 02:32:51;;;;;;;11.50;6.00;;;4.60;99.90;;;;;;5051974;28;20224;-63
2021/12/07 02:35:24;;;;;;;13.80;7.40;;;4.60;99.90;;;;;;5052438;28;20207;-63
2021/12/07 02:37:59;;;;;;;10.40;7.38;;;4.60;99.90;;;;;;5053854;28;20271;-60
2021/12/07 02:40:30;;;;;;;15.43;7.50;;;4.60;99.90;;;;;;5054265;28;20192;-62
2021/12/07 02:42:58;;;;;;;15.70;7.80;;;4.60;99.90;;;;;;5066963;28;20353;-62
2021/12/07 02:45:27;;;;;;;17.83;6.85;;;4.60;99.90;;;;;;5072721;28;20234;-62
2021/12/07 02:47:55;;;;;;;17.75;8.10;;;4.60;99.90;;;;;;5069956;28;20223;-61
2021/12/07 02:50:25;;;;;;;22.45;8.15;;;4.60;99.90;;;;;;5056698;28;20254;-61
2021/12/07 02:52:53;;;;;;;10.52;6.90;;;4.50;99.90;;;;;;5063705;28;20289;-63
2021/12/07 02:55:23;;;;;;;11.07;6.38;;;4.60;99.90;;;;;;5069960;28;20230;-61
2021/12/07 02:57:51;;;;;;;14.43;6.93;;;4.60;99.90;;;;;;5086829;28;20228;-61
2021/12/07 03:00:30;;;;;;;15.43;6.70;;;4.50;99.90;;;;;;5062459;28;20223;-61
2021/12/07 03:03:04;;;;;;;12.23;6.90;;;4.50;99.90;;;;;;5059242;28;20558;-63
2021/12/07 03:05:41;;;;;;;12.13;6.28;;;4.50;99.90;;;;;;5070989;28;20287;-63
2021/12/07 03:08:45;;;;;;;15.07;6.85;;;4.40;99.90;;;;;;5067912;28;20216;-61
2021/12/07 03:28:05;;;;;;;8.98;5.85;;;4.40;99.90;;;;;;5067966;28;20226;-60
2021/12/07 03:30:35;;;;;;;11.90;5.30;;;4.30;99.90;;;;;;5066595;28;20199;-60
2021/12/07 03:33:04;;;;;;;9.65;5.38;;;4.30;99.90;;;;;;5054907;28;20238;-62
2021/12/07 03:35:33;;;;;;;9.68;5.20;;;4.30;99.90;;;;;;5055625;28;20208;-62
2021/12/07 03:38:01;;;;;;;10.00;5.97;;;4.30;99.90;;;;;;5084575;28;20656;-61
2021/12/07 03:40:31;;;;;;;12.07;6.20;;;4.30;99.90;;;;;;5069141;28;20705;-62
2021/12/07 03:42:59;;;;;;;15.82;7.50;;;4.20;99.90;;;;;;5055082;28;20298;-63
2021/12/07 03:45:31;;;;;;;20.65;6.78;;;4.30;99.90;;;;;;5070671;28;20191;-62
2021/12/07 03:48:01;;;;;;;17.20;6.72;;;4.30;99.90;;;;;;5055039;28;20219;-61
2021/12/07 03:50:30;;;;;;;18.98;7.50;;;4.30;99.90;;;;;;5056627;28;20319;-60
2021/12/07 03:52:58;;;;;;;16.20;7.05;;;4.30;99.90;;;;;;5067052;28;21232;-63
2021/12/07 03:55:26;;;;;;;17.10;7.43;;;4.30;99.90;;;;;;5055011;28;20201;-62
2021/12/07 03:57:54;;;;;;;20.27;9.10;;;4.30;99.90;;;;;;5054862;28;20716;-60
2021/12/07 04:00:27;;;;;;;16.15;7.13;;;4.40;99.90;;;;;;5056406;28;20188;-61
2021/12/07 04:03:02;;;;;;;18.58;8.93;;;4.40;99.90;;;;;;5059414;28;20225;-62
2021/12/07 04:05:31;;;;;;;26.30;7.80;;;4.40;99.90;;;;;;5071880;28;20283;-64
2021/12/07 04:08:00;;;;;;;14.02;7.25;;;4.40;99.90;;;;;;5057111;28;20716;-61
2021/12/07 04:10:28;;;;;;;12.52;7.32;;;4.40;99.90;;;;;;5069231;28;20238;-61
2021/12/07 04:12:56;;;;;;;12.30;6.68;;;4.40;99.90;;;;;;5053438;28;20230;-62
2021/12/07 04:15:25;;;;;;;18.13;7.68;;;4.40;99.90;;;;;;5054200;28;20632;-62
2021/12/07 04:17:53;;;;;;;19.08;7.40;;;4.40;99.90;;;;;;5053031;28;20228;-61
2021/12/07 04:20:22;;;;;;;11.98;5.72;;;4.40;99.90;;;;;;5069304;28;20188;-61
2021/12/07 04:22:51;;;;;;;20.25;7.07;;;4.40;99.90;;;;;;5065793;28;20219;-62
2021/12/07 04:25:19;;;;;;;20.83;7.00;;;4.40;99.90;;;;;;5065525;28;20249;-63
2021/12/07 04:27:47;;;;;;;18.88;5.85;;;4.40;99.90;;;;;;5058523;28;20653;-61
2021/12/07 04:30:19;;;;;;;16.00;6.65;;;4.40;99.90;;;;;;5062376;28;20216;-61
2021/12/07 04:32:47;;;;;;;15.45;6.97;;;4.40;99.90;;;;;;5070949;28;20212;-62
2021/12/07 04:35:16;;;;;;;10.15;5.53;;;4.40;99.90;;;;;;5055518;28;20788;-63
2021/12/07 04:37:45;;;;;;;13.55;5.47;;;4.50;99.90;;;;;;5053661;28;20702;-61
2021/12/07 04:40:16;;;;;;;11.82;5.60;;;4.50;99.90;;;;;;5070112;28;20216;-62
2021/12/07 04:42:45;;;;;;;21.40;6.47;;;4.50;99.90;;;;;;5062450;28;20369;-61
2021/12/07 04:45:24;;;;;;;8.80;6.55;;;4.50;99.90;;;;;;5070512;28;20226;-63
2021/12/07 04:48:06;;;;;;;12.50;6.35;;;4.50;99.90;;;;;;5062195;28;20243;-61
2021/12/07 04:57:37;;;;;;;14.57;6.85;;;4.60;99.90;;;;;;5061182;28;20195;-61
2021/12/07 04:59:08;;;;;;;13.85;7.07;;;4.60;99.90;;;;;;5061695;28;20301;-61
2021/12/07 05:01:36;;;;;;;22.58;6.40;;;4.50;99.90;;;;;;5070639;28;20253;-61
2021/12/07 05:04:11;;;;;;;11.38;5.95;;;4.60;99.90;;;;;;5064863;28;20623;-62
2021/12/07 05:06:45;;;;;;;16.58;6.57;;;4.50;99.90;;;;;;5053915;28;20195;-63
2021/12/07 05:09:31;;;;;;;16.55;5.65;;;4.50;99.90;;;;;;5061323;28;20280;-61
2021/12/07 05:14:46;;;;;;;9.75;6.50;;;4.50;99.90;;;;;;5063956;28;20196;-63
2021/12/07 05:17:20;;;;;;;13.20;7.20;;;4.50;99.90;;;;;;5057418;28;20203;-63
2021/12/07 05:26:00;;;;;;;15.23;7.10;;;4.50;99.90;;;;;;5056426;28;20570;-63
2021/12/07 05:39:34;;;;;;;11.82;5.57;;;4.30;99.90;;;;;;5066231;28;20708;-61
2021/12/07 05:42:04;;;;;;;9.48;5.75;;;4.40;99.90;;;;;;5069820;28;20245;-61
2021/12/07 05:44:32;;;;;;;8.32;5.70;;;4.30;99.90;;;;;;5069580;28;20199;-62
2021/12/07 05:47:00;;;;;;;11.02;5.20;;;4.20;99.90;;;;;;5071469;28;20254;-62
2021/12/07 05:49:28;;;;;;;7.57;4.43;;;4.20;99.90;;;;;;5053855;28;20224;-62
2021/12/07 05:51:56;;;;;;;15.32;5.65;;;4.10;99.90;;;;;;5057394;28;20249;-61
2021/12/07 05:54:25;;;;;;;11.07;5.18;;;4.10;99.90;;;;;;5063876;28;20226;-62
2021/12/07 05:56:53;;;;;;;12.65;5.18;;;4.10;99.90;;;;;;5071867;28;20265;-62
2021/12/07 05:59:22;;;;;;;12.57;6.00;;;4.10;99.90;;;;;;5053239;28;20229;-62
2021/12/07 06:01:50;;;;;;;11.85;4.75;;;4.00;99.90;;;;;;5051653;28;20200;-61
2021/12/07 06:04:19;;;;;;;7.93;5.53;;;4.00;99.90;;;;;;5052000;28;20225;-63
2021/12/07 06:06:47;;;;;;;9.98;5.15;;;3.90;99.90;;;;;;5067583;28;20177;-62
2021/12/07 06:09:15;;;;;;;10.30;6.15;;;3.90;99.90;;;;;;5053762;27;20243;-61
2021/12/07 06:11:45;;;;;;;8.00;5.30;;;3.90;99.90;;;;;;5059631;28;20219;-60
2021/12/07 06:14:18;;;;;;;11.88;6.38;;;3.80;99.90;;;;;;5066098;28;20223;-63
2021/12/07 06:16:48;;;;;;;14.88;6.13;;;3.80;99.90;;;;;;5069788;28;20884;-63
2021/12/07 06:19:16;;;;;;;11.63;6.70;;;3.80;99.90;;;;;;5060478;28;20299;-62
2021/12/07 06:21:44;;;;;;;8.85;5.18;;;3.80;99.90;;;;;;5062961;28;20196;-61
2021/12/07 06:24:12;;;;;;;16.45;5.97;;;3.80;99.90;;;;;;5068756;28;20585;-63
2021/12/07 06:26:40;;;;;;;15.55;5.47;;;3.80;99.90;;;;;;5073760;28;20183;-63
2021/12/07 06:29:09;;;;;;;14.57;4.93;;;3.80;99.90;;;;;;5061603;28;20223;-62
2021/12/07 06:31:37;;;;;;;20.30;5.45;;;3.70;99.90;;;;;;5067051;28;20193;-61
2021/12/07 06:34:10;;;;;;;13.48;4.65;;;3.70;99.90;;;;;;5055697;28;20250;-63
2021/12/07 06:36:38;;;;;;;7.50;4.78;;;3.70;99.90;;;;;;5069693;28;20601;-63
2021/12/07 06:39:08;;;;;;;13.02;6.72;;;3.70;99.90;;;;;;5060817;28;20223;-61
2021/12/07 06:41:36;;;;;;;11.02;6.35;;;3.70;99.90;;;;;;5057707;28;20196;-62
2021/12/07 06:44:05;;;;;;;14.73;6.28;;;3.60;99.90;;;;;;5063784;28;20567;-63
2021/12/07 06:46:33;;;;;;;9.95;5.88;;;3.60;99.90;;;;;;5061683;28;20184;-63
2021/12/07 06:49:01;;;;;;;12.02;5.13;;;3.70;99.90;;;;;;5069971;28;20227;-61
2021/12/07 06:51:31;;;;;;;13.20;5.97;;;3.70;99.90;;;;;;5057182;28;20601;-61
2021/12/07 06:54:00;;;;;;;10.70;6.00;;;3.60;99.90;;;;;;5059672;28;20211;-61
2021/12/07 06:56:28;;;;;;;10.57;6.05;;;3.60;99.90;;;;;;5066126;28;20200;-62
2021/12/07 06:58:57;;;;;;;15.25;5.88;;;3.70;99.90;;;;;;5064240;28;20572;-61
2021/12/07 07:01:25;;;;;;;9.00;5.30;;;3.70;99.90;;;;;;5073335;28;20203;-62
2021/12/07 07:03:59;;;;;;;19.50;5.10;;;3.70;99.90;;;;;;5067609;28;20206;-61
2021/12/07 07:06:28;;;;;;;8.55;4.28;;;3.70;99.90;;;;;;5055408;28;20195;-63
2021/12/07 07:08:57;;;;;;;7.32;4.50;;;3.60;99.90;;;;;;5054512;28;20324;-61
2021/12/07 07:11:25;;;;;;;17.80;5.35;;;3.60;99.90;;;;;;5054720;28;20200;-61
2021/12/07 07:13:54;;;;;;;8.23;5.45;;;3.60;99.90;;;;;;5059559;28;20702;-61
2021/12/07 07:16:22;;;;;;;12.27;4.90;;;3.60;99.90;;;;;;5074429;28;20203;-64
2021/12/07 07:18:51;;;;;;;13.98;4.78;;;3.50;99.90;;;;;;5062109;28;20220;-63
2021/12/07 07:21:19;;;;;;;8.32;3.25;;;3.50;99.90;;;;;;5054908;28;20187;-61
2021/12/07 07:23:47;;;;;;;7.53;4.00;;;3.50;99.90;;;;;;5054492;28;20581;-62
2021/12/07 07:26:17;;;;;;;10.90;3.75;;;3.50;99.90;;;;;;5054186;28;20203;-63
2021/12/07 07:28:45;;;;;;;11.00;4.75;;;3.40;99.90;;;;;;5054708;28;20216;-62
2021/12/07 07:31:14;;;;;;;8.68;3.67;;;3.40;99.90;;;;;;5053366;28;20193;-62
2021/12/07 07:33:43;;;;;;;13.05;4.80;;;3.50;99.90;;;;;;5039003;28;20299;-62
2021/12/07 07:36:11;;;;;;;9.60;3.83;;;3.50;99.90;;;;;;5085227;28;20720;-63
2021/12/07 07:38:39;;;;;;;13.15;4.10;;;3.50;99.90;;;;;;5062450;28;20749;-63
2021/12/07 07:41:07;;;;;;;9.02;4.78;;;3.40;99.90;;;;;;5067232;28;20242;-62
2021/12/07 07:43:37;;;;;;;9.60;4.75;;;3.50;99.90;;;;;;5058173;28;20632;-61
2021/12/07 07:46:13;;;;;;;13.77;4.53;;;3.50;99.90;;;;;;5067839;28;20191;-63
2021/12/07 07:48:41;;;;;;;12.00;5.57;;;3.50;99.90;;;;;;5073479;28;20252;-62
2021/12/07 07:51:10;;;;;;;8.48;4.97;;;3.50;99.90;;;;;;5068638;28;20197;-61
2021/12/07 07:53:38;;;;;;;14.70;5.38;;;3.50;99.90;;;;;;5053394;28;20617;-61
2021/12/07 07:56:08;;;;;;;13.10;5.50;;;3.50;99.90;;;;;;5053108;28;20273;-62
2021/12/07 07:58:37;;;;;;;13.85;4.57;;;3.50;99.90;;;;;;5061923;28;20227;-62
2021/12/07 08:01:06;;;;;;;10.18;5.90;;;3.50;99.90;;;;;;5073683;28;20191;-61
2021/12/07 08:03:35;;;;;;;10.65;5.13;;;3.50;99.90;;;;;;5069095;28;20239;-61
2021/12/07 08:06:04;;;;;;;7.97;4.65;;;3.60;99.90;;;;;;5068868;28;20743;-62
2021/12/07 08:08:32;;;;;;;7.07;4.65;;;3.50;99.90;;;;;;5069590;28;20212;-62
2021/12/07 08:11:02;;;;;;;11.48;5.00;;;3.60;99.90;;;;;;5071987;28;20188;-62
2021/12/07 08:13:31;;;;;;;13.85;5.00;;;3.60;99.90;;;;;;5057433;28;20606;-61
2021/12/07 08:16:02;;;;;;;19.42;4.82;;;3.70;99.90;;;;;;5057157;28;20201;-62
2021/12/07 08:18:30;;;;;;;11.20;5.47;;;3.70;99.90;;;;;;5054577;28;20224;-62
2021/12/07 08:20:58;;;;;;;12.15;4.57;;;3.70;99.90;;;;;;5054656;28;20271;-61
2021/12/07 08:23:27;;;;;;;10.70;4.18;;;3.80;99.90;;;;;;5061454;28;20224;-61
2021/12/07 08:25:55;;;;;;;12.45;3.90;;;3.90;99.90;;;;;;5053281;28;20733;-63
2021/12/07 08:28:23;;;;;;;13.38;4.47;;;3.90;99.90;;;;;;5058275;28;20246;-63
2021/12/07 08:30:51;;;;;;;8.27;3.70;;;3.90;99.90;;;;;;5058628;28;20187;-62
2021/12/07 08:33:21;;;;;;;12.07;4.00;;;3.90;99.90;;;;;;5072283;28;20227;-62
2021/12/07 08:35:50;;;;;;;6.72;3.30;;;4.00;99.90;;;;;;5070118;28;20211;-62
2021/12/07 08:38:18;;;;;;;8.35;3.75;;;4.00;99.90;;;;;;5079938;28;20724;-63
2021/12/07 08:40:53;;;;;;;15.02;4.18;;;4.10;99.90;;;;;;5063662;28;20316;-61
2021/12/07 08:43:22;;;;;;;9.80;3.90;;;4.20;99.90;;;;;;5058824;28;20213;-61
2021/12/07 08:45:51;;;;;;;8.63;3.63;;;4.20;99.90;;;;;;5072831;28;20200;-61
2021/12/07 08:48:21;;;;;;;5.78;3.42;;;4.20;99.90;;;;;;5072397;28;20223;-63
2021/12/07 08:50:50;;;;;;;13.82;3.80;;;4.30;99.90;;;;;;5072979;28;20281;-61
2021/12/07 08:53:19;;;;;;;9.88;3.88;;;4.40;99.90;;;;;;5061662;28;20282;-62
2021/12/07 09:01:24;;;;;;;13.13;3.75;;;4.50;99.90;;;;;;5053661;28;20704;-61
2021/12/07 09:03:56;;;;;;;7.95;3.95;;;4.70;99.90;;;;;;5055514;28;20578;-61
2021/12/07 09:06:25;;;;;;;9.85;3.90;;;4.80;99.90;;;;;;5072582;28;20219;-62
2021/12/07 09:08:55;;;;;;;8.38;3.80;;;4.80;99.90;;;;;;5057208;28;20589;-63
2021/12/07 09:11:24;;;;;;;12.45;3.33;;;4.80;99.90;;;;;;5072851;28;20196;-62
2021/12/07 09:13:52;;;;;;;11.10;3.47;;;4.80;99.90;;;;;;5062378;28;20978;-61
2021/12/07 09:16:24;;;;;;;8.65;3.15;;;4.70;99.90;;;;;;5053580;28;20216;-62
2021/12/07 09:18:53;;;;;;;13.65;5.22;;;4.70;99.90;;;;;;5059567;28;20216;-63
2021/12/07 09:21:22;;;;;;;7.43;3.35;;;4.80;99.90;;;;;;5061598;28;20669;-63
2021/12/07 09:23:51;;;;;;;14.27;3.10;;;4.80;99.90;;;;;;5054435;28;20307;-62
2021/12/07 09:26:19;;;;;;;10.10;3.47;;;4.80;99.90;;;;;;5057127;28;20187;-63
2021/12/07 09:28:48;;;;;;;14.93;3.72;;;4.80;99.90;;;;;;5060521;28;20274;-62
2021/12/07 09:31:16;;;;;;;5.35;2.92;;;4.80;99.90;;;;;;5065229;28;20243;-62
2021/12/07 09:33:45;;;;;;;16.63;4.45;;;4.70;99.90;;;;;;5051409;28;20247;-62
2021/12/07 09:36:16;;;;;;;6.10;2.80;;;4.70;99.90;;;;;;5051871;28;20185;-62
2021/12/07 09:38:44;;;;;;;5.30;3.20;;;4.70;99.90;;;;;;5054552;28;20225;-63
2021/12/07 09:41:15;;;;;;;7.72;3.10;;;4.70;99.90;;;;;;5066046;28;20194;-62
2021/12/07 09:43:43;;;;;;;7.88;3.78;;;4.80;99.90;;;;;;5063192;28;20920;-62
2021/12/07 09:46:12;;;;;;;5.05;2.88;;;4.80;99.90;;;;;;5068119;28;20188;-63
2021/12/07 09:48:43;;;;;;;7.05;3.53;;;4.80;99.90;;;;;;5061032;28;20211;-64
2021/12/07 09:51:13;;;;;;;7.82;2.70;;;4.80;99.90;;;;;;5066444;28;20193;-61
2021/12/07 09:53:42;;;;;;;11.30;2.55;;;4.80;99.90;;;;;;5060934;28;20211;-62
2021/12/07 09:56:11;;;;;;;4.35;2.90;;;4.80;99.90;;;;;;5069893;28;20237;-61
2021/12/07 09:58:39;;;;;;;9.52;3.35;;;4.80;99.90;;;;;;5063491;28;20212;-63
2021/12/07 10:01:09;;;;;;;10.10;2.95;;;4.80;99.90;;;;;;5051876;28;20613;-62
2021/12/07 10:03:39;;;;;;;5.53;2.70;;;4.80;99.90;;;;;;5051196;28;20228;-62
2021/12/07 10:06:09;;;;;;;7.05;2.25;;;4.90;99.90;;;;;;5055485;28;20210;-61
2021/12/07 10:08:38;;;;;;;9.15;3.65;;;4.90;99.90;;;;;;5051502;28;20223;-63
2021/12/07 10:11:11;;;;;;;10.30;3.50;;;4.90;99.90;;;;;;5050321;28;20219;-62
2021/12/07 10:13:41;;;;;;;11.77;3.15;;;5.00;99.90;;;;;;5055179;28;20216;-61
2021/12/07 10:16:13;;;;;;;11.73;3.33;;;5.00;99.90;;;;;;5063795;28;20196;-62
2021/12/07 10:18:42;;;;;;;9.07;3.28;;;5.00;99.90;;;;;;5051153;28;20303;-62
2021/12/07 10:21:16;;;;;;;5.60;3.10;;;5.00;99.90;;;;;;5052648;28;20631;-61
2021/12/07 10:23:46;;;;;;;5.82;4.68;;;5.00;99.90;;;;;;5052483;28;20928;-61
2021/12/07 10:26:18;;;;;;;10.80;2.80;;;5.00;99.90;;;;;;5051306;28;20571;-61
2021/12/07 10:28:48;;;;;;;8.93;3.28;;;5.00;99.90;;;;;;5057529;28;20212;-62
2021/12/07 10:31:24;;;;;;;4.57;3.38;;;5.00;99.90;;;;;;5051692;28;20197;-61
2021/12/07 10:33:54;;;;;;;6.10;2.90;;;5.00;99.90;;;;;;5070196;28;20226;-61
2021/12/07 10:36:25;;;;;;;4.05;2.78;;;5.10;99.90;;;;;;5067209;28;20237;-61
2021/12/07 10:38:58;;;;;;;4.97;3.50;;;5.10;99.90;;;;;;5052715;28;20251;-63
2021/12/07 10:41:32;;;;;;;7.68;3.50;;;5.20;99.90;;;;;;5051828;28;20184;-61
2021/12/07 10:44:04;;;;;;;7.05;3.58;;;5.30;99.90;;;;;;5053896;28;20220;-61
2021/12/07 10:46:36;;;;;;;9.43;2.75;;;5.20;99.90;;;;;;5055017;28;20191;-60
2021/12/07 10:49:24;;;;;;;7.35;3.30;;;5.30;99.90;;;;;;5070400;28;20293;-62
2021/12/07 10:52:08;;;;;;;6.68;3.90;;;5.20;99.90;;;;;;5066367;28;20196;-61
2021/12/07 10:54:38;;;;;;;7.90;3.72;;;5.20;99.90;;;;;;5069515;28;20273;-61
2021/12/07 10:57:11;;;;;;;3.13;2.25;;;5.30;99.90;;;;;;5059836;28;20196;-62
2021/12/07 10:59:48;;;;;;;8.43;3.55;;;5.30;99.90;;;;;;5050067;28;20216;-62
2021/12/07 11:02:18;;;;;;;5.30;3.03;;;5.30;99.90;;;;;;5067260;28;20195;-62
2021/12/07 11:04:49;;;;;;;8.88;3.78;;;5.30;99.90;;;;;;5069621;28;20631;-62
2021/12/07 11:07:21;;;;;;;9.23;5.25;;;5.30;99.90;;;;;;5060684;28;20192;-62
2021/12/07 11:09:58;;;;;;;3.38;2.40;;;5.30;99.90;;;;;;5086086;28;20578;-62
2021/12/07 11:12:35;;;;;;;7.15;3.17;;;5.30;99.90;;;;;;5064770;28;20639;-62
2021/12/07 11:15:11;;;;;;;6.57;2.83;;;5.30;99.90;;;;;;5073385;28;20790;-62
2021/12/07 11:17:40;;;;;;;10.63;2.90;;;5.30;99.90;;;;;;5055113;28;20219;-62
2021/12/07 11:20:10;;;;;;;6.40;3.25;;;5.40;99.90;;;;;;5066717;28;20219;-62
2021/12/07 11:22:41;;;;;;;8.77;2.65;;;5.40;99.90;;;;;;5068020;28;20215;-61
2021/12/07 11:25:10;;;;;;;4.88;2.30;;;5.40;99.90;;;;;;5073763;28;20193;-61
2021/12/07 11:30:33;;;;;;;4.65;2.42;;;5.60;99.90;;;;;;5053206;28;20185;-62
2021/12/07 11:33:02;;;;;;;3.47;2.47;;;5.60;99.90;;;;;;5054562;28;20216;-61
2021/12/07 11:35:33;;;;;;;3.83;2.47;;;5.60;99.90;;;;;;5056250;28;20188;-62
2021/12/07 11:38:05;;;;;;;7.55;2.38;;;5.60;99.90;;;;;;5057803;28;20689;-62
2021/12/07 11:40:35;;;;;;;3.70;2.30;;;5.60;99.90;;;;;;5069513;28;20569;-61
2021/12/07 11:43:16;;;;;;;4.63;1.88;;;5.50;99.90;;;;;;5070284;28;20215;-60
2021/12/07 11:45:45;;;;;;;5.20;2.92;;;5.50;99.90;;;;;;5056837;28;20196;-61
2021/12/07 11:48:17;;;;;;;5.75;3.00;;;5.50;99.90;;;;;;5054530;28;20262;-63
2021/12/07 11:50:56;;;;;;;4.03;2.13;;;5.60;99.90;;;;;;5053999;28;20278;-62
2021/12/07 11:53:27;;;;;;;5.93;2.55;;;5.60;99.90;;;;;;5076203;28;20710;-61
2021/12/07 11:55:57;;;;;;;5.18;2.40;;;5.60;99.90;;;;;;5053541;28;20246;-61
2021/12/07 11:58:27;;;;;;;3.88;2.08;;;5.60;99.90;;;;;;5056765;28;20750;-62
2021/12/07 12:00:58;;;;;;;5.07;2.35;;;5.60;99.90;;;;;;5072057;28;20196;-62
2021/12/07 12:03:27;;;;;;;4.85;1.88;;;5.60;99.90;;;;;;5069405;28;20242;-61
2021/12/07 12:05:56;;;;;;;4.82;2.05;;;5.60;99.90;;;;;;5073632;28;20192;-61
2021/12/07 12:08:31;;;;;;;6.57;1.73;;;5.60;99.90;;;;;;5063864;28;20225;-62
2021/12/07 12:11:04;;;;;;;7.95;2.30;;;5.70;99.90;;;;;;5072222;28;20729;-62
2021/12/07 12:13:46;;;;;;;4.88;2.58;;;5.80;99.90;;;;;;5067914;28;20204;-61
2021/12/07 12:16:23;;;;;;;4.43;3.17;;;5.90;99.90;;;;;;5073022;28;20200;-62
2021/12/07 12:19:00;;;;;;;3.42;2.80;;;5.90;99.90;;;;;;5062530;28;20307;-62
2021/12/07 12:21:34;;;;;;;5.28;3.30;;;5.80;99.90;;;;;;5070416;28;20589;-60
2021/12/07 12:24:14;;;;;;;7.32;2.20;;;5.80;99.90;;;;;;5066339;28;20223;-61
2021/12/07 12:26:45;;;;;;;6.63;2.58;;;5.80;99.90;;;;;;5062231;28;20642;-60
2021/12/07 12:29:20;;;;;;;13.30;6.20;;;5.80;99.90;;;;;;5056613;28;20217;-63
2021/12/07 12:31:52;;;;;;;3.58;2.13;;;5.90;99.90;;;;;;5060702;28;20191;-62
2021/12/07 12:34:22;;;;;;;10.32;2.53;;;5.80;99.90;;;;;;5066459;28;20230;-61
2021/12/07 12:37:04;;;;;;;7.82;2.60;;;5.90;99.90;;;;;;5058281;28;20261;-61
2021/12/07 12:39:50;;;;;;;9.25;2.63;;;5.80;99.90;;;;;;5066850;28;20210;-62
2021/12/07 12:42:26;;;;;;;4.43;2.20;;;5.80;99.90;;;;;;5069028;28;20219;-61
2021/12/07 12:45:08;;;;;;;6.25;2.15;;;5.90;99.90;;;;;;5051346;28;20192;-62
2021/12/07 12:47:40;;;;;;;4.65;2.00;;;5.80;99.90;;;;;;5057260;28;20682;-62
2021/12/07 12:50:14;;;;;;;7.53;2.50;;;5.80;99.90;;;;;;5062150;28;20269;-62
2021/12/07 12:52:46;;;;;;;6.07;2.60;;;5.80;99.90;;;;;;5052658;28;20220;-63
2021/12/07 12:55:35;;;;;;;7.35;3.10;;;5.90;99.90;;;;;;5055045;28;20181;-62
2021/12/07 12:58:06;;;;;;;5.28;2.53;;;6.00;99.90;;;;;;5055547;28;20215;-62
2021/12/07 13:01:02;;;;;;;5.88;3.05;;;5.90;99.90;;;;;;5065680;28;20832;-62
2021/12/07 13:03:56;;;;;;;5.05;2.67;;;5.80;99.90;;;;;;5054434;28;20220;-62
2021/12/07 13:06:44;;;;;;;8.98;2.72;;;5.80;99.90;;;;;;5063998;28;20189;-61
2021/12/07 13:09:39;;;;;;;4.95;1.85;;;5.70;99.90;;;;;;5056067;28;20938;-61
2021/12/07 13:12:11;;;;;;;3.75;1.55;;;5.70;99.90;;;;;;5068455;28;20332;-62
2021/12/07 13:14:56;;;;;;;7.13;2.42;;;5.60;99.90;;;;;;5056739;28;20207;-61
2021/12/07 13:17:29;;;;;;;10.77;3.75;;;5.60;99.90;;;;;;5063320;28;20219;-61
2021/12/07 13:20:18;;;;;;;4.07;1.83;;;5.60;99.90;;;;;;5058831;28;20205;-61
2021/12/07 13:22:50;;;;;;;4.43;2.00;;;5.60;99.90;;;;;;5058234;28;20212;-61
2021/12/07 13:25:21;;;;;;;7.22;2.13;;;5.60;99.90;;;;;;5067735;28;20305;-60
2021/12/07 13:28:13;;;;;;;4.40;1.70;;;5.60;99.90;;;;;;5058093;28;20211;-61
2021/12/07 13:31:01;;;;;;;3.97;1.98;;;5.60;99.90;;;;;;5053088;28;20590;-62
2021/12/07 13:33:38;;;;;;;7.75;1.77;;;5.50;99.90;;;;;;5082957;28;20216;-61
2021/12/07 13:36:33;;;;;;;2.50;1.65;;;5.50;99.90;;;;;;5068536;28;20218;-61
2021/12/07 13:39:26;;;;;;;8.57;1.75;;;5.50;99.90;;;;;;5067898;28;20426;-62
2021/12/07 13:41:58;;;;;;;6.72;1.50;;;5.50;99.90;;;;;;5053116;28;20267;-62
2021/12/07 13:44:27;;;;;;;7.80;2.33;;;5.50;99.90;;;;;;5051374;28;20212;-62
2021/12/07 13:46:57;;;;;;;4.90;1.70;;;5.40;99.90;;;;;;5051697;28;20380;-61
2021/12/07 13:49:27;;;;;;;9.00;1.65;;;5.40;99.90;;;;;;5061304;28;20598;-62
2021/12/07 13:51:55;;;;;;;4.53;2.72;;;5.40;99.90;;;;;;5064289;28;20184;-62
2021/12/07 13:54:23;;;;;;;7.30;2.05;;;5.30;99.90;;;;;;5068126;28;20227;-60
2021/12/07 13:56:54;;;;;;;6.47;2.17;;;5.30;99.90;;;;;;5069676;28;20199;-61
2021/12/07 13:59:24;;;;;;;2.95;2.25;;;5.30;99.90;;;;;;5063870;28;20318;-62
2021/12/07 14:01:54;;;;;;;4.88;1.77;;;5.30;99.90;;;;;;5051705;28;20220;-62
2021/12/07 14:04:27;;;;;;;10.85;2.35;;;5.30;99.90;;;;;;5056709;28;20247;-61
2021/12/07 14:06:56;;;;;;;2.75;2.30;;;5.20;99.90;;;;;;5061222;28;20219;-60
2021/12/07 14:09:25;;;;;;;7.68;1.95;;;5.20;99.90;;;;;;5056732;28;20243;-62
2021/12/07 14:11:54;;;;;;;4.53;2.00;;;5.20;99.90;;;;;;5061931;28;20211;-63
2021/12/07 14:14:24;;;;;;;5.82;2.75;;;5.20;99.90;;;;;;5069098;28;20376;-62
2021/12/07 14:16:56;;;;;;;7.40;3.28;;;5.20;99.90;;;;;;5071543;28;20188;-61
2021/12/07 14:19:26;;;;;;;8.63;3.55;;;5.20;99.90;;;;;;5071250;28;20261;-62
2021/12/07 14:21:55;;;;;;;6.20;3.50;;;5.10;99.90;;;;;;5070720;28;20212;-61
2021/12/07 14:24:23;;;;;;;6.57;3.35;;;5.10;99.90;;;;;;5071325;28;20640;-61
2021/12/07 14:26:51;;;;;;;5.15;2.70;;;5.10;99.90;;;;;;5071575;28;20229;-61
2021/12/07 14:29:22;;;;;;;5.50;1.98;;;5.10;99.90;;;;;;5070387;28;20219;-62
2021/12/07 14:31:53;;;;;;;7.85;2.97;;;5.00;99.90;;;;;;5071453;28;20192;-62
2021/12/07 14:34:24;;;;;;;11.07;2.90;;;5.00;99.90;;;;;;5069593;28;20242;-61
2021/12/07 14:36:58;;;;;;;5.47;2.00;;;5.10;99.90;;;;;;5060216;28;20194;-61
2021/12/07 14:39:29;;;;;;;4.72;2.13;;;5.10;99.90;;;;;;5049741;28;20266;-61
2021/12/07 14:41:59;;;;;;;5.13;2.65;;;5.10;99.90;;;;;;5055238;28;20223;-61